Date,TemperatureHighF,TemperatureAvgF,TemperatureLowF,DewpointHighF,DewpointAvgF,DewpointLowF,HumidityHigh,HumidityAvg,HumidityLow,PressureMaxIn,PressureMinIn,WindSpeedMaxMPH,WindSpeedAvgMPH,GustSpeedMaxMPH,PrecipitationSumIn
2012-12-1,64,45,36,42,38,35,96,81,45,30.27,30.18,5,2,14,0.00
2012-12-2,65,53,42,49,45,40,94,77,46,30.26,30.16,7,4,22,0.00
2012-12-3,72,52,42,48,44,41,96,76,40,30.22,30.14,5,2,13,0.00
2012-12-4,67,55,47,48,45,42,97,72,41,30.22,30.11,6,3,20,0.00
2012-12-5,61,55,48,51,46,32,83,73,50,30.11,30.04,5,3,16,0.00
2012-12-6,52,46,43,37,29,-100,70,54,38,30.13,30.04,4,2,11,0.00
2012-12-7,60,47,38,50,42,31,98,84,63,30.06,29.88,4,2,11,0.07
2012-12-8,65,50,42,54,47,41,99,93,55,29.93,29.88,5,2,12,0.01
2012-12-9,61,55,49,55,52,49,100,92,72,30.00,29.90,7,3,17,0.03
2012-12-10,56,54,53,56,54,52,100,98,94,29.86,29.60,7,5,25,0.37
2012-12-11,54,38,32,53,35,26,97,88,75,29.99,29.63,6,4,18,0.01
2012-12-12,42,36,32,32,30,26,90,77,67,30.11,29.99,4,2,16,0.01
2012-12-13,56,39,28,30,24,15,75,59,25,30.20,30.09,6,2,16,0.00
2012-12-14,64,34,25,31,23,17,84,68,16,30.21,30.09,4,2,11,0.00
2012-12-15,60,44,33,37,31,25,73,62,29,30.10,29.95,7,3,18,0.00
2012-12-16,53,50,44,52,47,35,100,90,69,29.95,29.81,6,2,17,0.54
2012-12-17,51,48,46,51,48,46,100,99,97,29.82,29.57,5,3,18,0.63
2012-12-18,56,44,33,47,33,18,100,71,26,29.82,29.56,5,2,19,0.01
2012-12-19,65,46,33,39,29,14,89,55,30,29.98,29.81,4,2,15,0.01
2012-12-20,48,44,36,47,39,25,99,86,62,29.98,29.47,8,4,30,1.36
2012-12-21,40,33,29,25,18,11,66,53,35,29.74,29.51,10,6,31,0.08
2012-12-22,54,36,26,15,7,-4,57,33,10,29.99,29.74,7,4,29,0.01
2012-12-23,55,38,25,32,19,11,65,48,21,30.00,29.88,5,2,19,0.00
2012-12-24,49,43,37,46,40,29,99,88,56,29.90,29.71,6,3,20,0.43
2012-12-25,50,42,34,49,39,34,100,93,66,29.92,29.80,5,2,16,0.08
2012-12-26,44,40,32,43,36,23,98,88,68,29.82,29.33,11,6,31,2.75
2012-12-27,42,32,26,28,25,23,94,74,55,29.90,29.57,6,4,21,0.02
2012-12-28,50,34,25,31,27,24,95,79,42,29.95,29.78,4,2,10,0.04
2012-12-29,48,35,28,37,29,18,98,80,56,29.85,29.60,7,4,30,0.32
2012-12-30,44,30,24,20,17,14,84,59,31,30.22,29.85,7,3,26,0.01
2012-12-31,57,40,24,25,17,1,84,43,19,30.20,29.98,5,3,15,0.00